createdAt,value
2023-02-18T00:00:49.475Z,15.88
2023-02-18T00:03:52.744Z,15.75
2023-02-18T00:06:54.960Z,16.27
2023-02-18T00:09:57.463Z,13.50
2023-02-18T00:13:01.427Z,14.80
2023-02-18T00:16:06.415Z,11.50
2023-02-18T00:19:12.284Z,8.65
2023-02-18T00:22:15.086Z,7.28
2023-02-18T00:25:17.347Z,8.25
2023-02-18T00:28:19.735Z,9.60
2023-02-18T00:31:28.085Z,6.62
2023-02-18T00:34:30.585Z,7.00
2023-02-18T00:37:35.035Z,10.90
2023-02-18T00:40:39.068Z,5.80
2023-02-18T00:43:41.537Z,6.40
2023-02-18T00:46:44.159Z,5.57
2023-02-18T00:49:46.325Z,4.75
2023-02-18T00:52:48.817Z,4.03
2023-02-18T00:55:50.983Z,5.07
2023-02-18T00:58:53.430Z,5.37
2023-02-18T01:01:55.653Z,5.85
2023-02-18T01:04:58.344Z,4.55
2023-02-18T01:08:00.661Z,7.53
2023-02-18T01:11:05.588Z,3.45
2023-02-18T01:14:07.735Z,3.55
2023-02-18T01:17:10.243Z,3.20
2023-02-18T01:20:15.433Z,3.30
2023-02-18T01:23:18.466Z,2.70
2023-02-18T01:26:20.669Z,3.92
2023-02-18T01:29:23.129Z,2.80
2023-02-18T01:32:25.323Z,2.65
2023-02-18T01:35:27.744Z,2.75
2023-02-18T01:38:30.699Z,2.67
2023-02-18T01:41:33.720Z,4.90
2023-02-18T01:44:35.884Z,4.57
2023-02-18T01:47:38.266Z,2.58
2023-02-18T01:50:48.542Z,3.70
2023-02-18T01:54:17.073Z,2.33
2023-02-18T01:57:32.987Z,2.92
2023-02-18T02:00:37.017Z,3.35
2023-02-18T02:03:39.605Z,2.95
2023-02-18T02:06:42.040Z,2.35
2023-02-18T02:09:45.537Z,0.80
2023-02-18T02:12:59.849Z,2.75
2023-02-18T02:16:26.823Z,1.23
2023-02-18T02:19:56.602Z,2.42
2023-02-18T02:23:14.424Z,4.05
2023-02-18T02:26:41.675Z,2.33
2023-02-18T02:30:28.292Z,2.33
2023-02-18T02:33:39.955Z,5.07
2023-02-18T02:37:02.287Z,0.93
2023-02-18T02:40:27.845Z,3.00
2023-02-18T02:43:59.961Z,3.80
2023-02-18T02:47:10.640Z,1.23
2023-02-18T02:50:25.098Z,2.80
2023-02-18T02:53:30.969Z,0.90
2023-02-18T02:56:33.200Z,0.90
2023-02-18T02:59:39.420Z,2.25
2023-02-18T03:02:44.372Z,0.90
2023-02-18T03:06:09.498Z,3.33
2023-02-18T03:09:38.066Z,1.05
2023-02-18T03:13:09.323Z,2.28
2023-02-18T03:16:26.259Z,1.23
2023-02-18T03:19:33.791Z,0.80
2023-02-18T03:22:48.653Z,2.05
2023-02-18T03:25:52.833Z,0.88
2023-02-18T03:28:58.779Z,1.30
2023-02-18T03:32:05.251Z,0.82
2023-02-18T03:35:17.750Z,0.62
2023-02-18T03:38:29.639Z,1.35
2023-02-18T03:41:33.118Z,1.40
2023-02-18T03:44:35.633Z,1.40
2023-02-18T03:47:38.093Z,1.98
2023-02-18T03:50:40.591Z,1.10
2023-02-18T03:53:42.823Z,0.95
2023-02-18T03:56:47.552Z,2.80
2023-02-18T03:59:49.661Z,1.17
2023-02-18T04:02:52.137Z,1.50
2023-02-18T04:05:54.586Z,1.50
2023-02-18T04:08:56.985Z,2.42
2023-02-18T04:11:59.401Z,1.55
2023-02-18T04:15:01.559Z,1.80
2023-02-18T04:18:04.306Z,2.17
2023-02-18T04:21:06.918Z,1.48
2023-02-18T04:24:09.411Z,1.23
2023-02-18T04:27:11.644Z,1.35
2023-02-18T04:30:14.451Z,1.37
2023-02-18T04:33:16.665Z,4.35
2023-02-18T04:36:19.079Z,2.65
2023-02-18T04:39:21.189Z,3.05
2023-02-18T04:42:23.878Z,2.00
2023-02-18T04:45:27.638Z,2.45
2023-02-18T04:48:30.263Z,2.92
2023-02-18T04:51:32.520Z,3.47
2023-02-18T04:54:34.987Z,2.12
2023-02-18T04:57:37.443Z,3.50
2023-02-18T05:00:39.834Z,3.05
2023-02-18T05:03:42.208Z,4.03
2023-02-18T05:06:44.732Z,2.22
2023-02-18T05:09:47.008Z,2.30
2023-02-18T05:12:49.463Z,2.17
2023-02-18T05:15:51.721Z,2.20
2023-02-18T05:18:54.296Z,3.17
2023-02-18T05:21:56.497Z,2.25
2023-02-18T05:24:58.938Z,2.42
2023-02-18T05:28:01.108Z,2.50
2023-02-18T05:31:03.748Z,3.08
2023-02-18T05:34:06.002Z,2.50
2023-02-18T05:37:09.364Z,2.58
2023-02-18T05:40:12.412Z,2.50
2023-02-18T05:43:15.159Z,2.47
2023-02-18T05:46:17.549Z,2.45
2023-02-18T05:49:20.048Z,2.70
2023-02-18T05:52:22.596Z,2.08
2023-02-18T05:55:25.036Z,2.92
2023-02-18T05:58:27.248Z,1.55
2023-02-18T06:01:29.931Z,2.92
2023-02-18T06:04:32.514Z,1.12
2023-02-18T06:07:34.877Z,3.33
2023-02-18T06:10:37.284Z,1.42
2023-02-18T06:13:39.487Z,3.25
2023-02-18T06:16:41.981Z,1.80
2023-02-18T06:19:45.128Z,2.58
2023-02-18T06:22:47.561Z,1.30
2023-02-18T06:25:50.385Z,1.40
2023-02-18T06:28:52.957Z,2.00
2023-02-18T06:31:55.218Z,1.75
2023-02-18T06:34:57.771Z,1.40
2023-02-18T06:37:59.960Z,1.95
2023-02-18T06:41:03.052Z,1.80
2023-02-18T06:44:05.202Z,1.35
2023-02-18T06:47:07.632Z,1.48
2023-02-18T06:50:10.232Z,1.67
2023-02-18T06:53:12.912Z,1.80
2023-02-18T06:56:15.108Z,3.22
2023-02-18T06:59:17.570Z,1.05
2023-02-18T07:02:19.729Z,1.20
2023-02-18T07:05:22.283Z,1.23
2023-02-18T07:08:24.504Z,2.28
2023-02-18T07:11:26.949Z,1.00
2023-02-18T07:14:29.132Z,1.12
2023-02-18T07:17:31.844Z,1.65
2023-02-18T07:20:34.406Z,1.15
2023-02-18T07:23:36.901Z,1.77
2023-02-18T07:26:39.089Z,1.52
2023-02-18T07:29:41.551Z,1.60
2023-02-18T07:32:43.796Z,1.45
2023-02-18T07:35:46.237Z,1.65
2023-02-18T07:38:48.379Z,1.58
2023-02-18T07:41:50.830Z,1.52
2023-02-18T07:44:52.968Z,1.67
2023-02-18T07:47:55.375Z,2.35
2023-02-18T07:50:57.539Z,2.83
2023-02-18T07:54:00.135Z,2.10
2023-02-18T07:57:02.334Z,1.65
2023-02-18T08:00:05.187Z,2.40
2023-02-18T08:03:16.402Z,1.42
2023-02-18T08:06:25.061Z,2.22
2023-02-18T08:09:27.376Z,1.58
2023-02-18T08:12:29.775Z,4.12
2023-02-18T08:15:31.934Z,2.47
2023-02-18T08:18:34.350Z,1.30
2023-02-18T08:21:36.592Z,1.95
2023-02-18T08:24:38.983Z,1.77
2023-02-18T08:27:41.244Z,1.50
2023-02-18T08:30:51.414Z,4.05
2023-02-18T08:33:56.493Z,1.45
2023-02-18T08:36:58.900Z,2.00
2023-02-18T08:40:02.496Z,3.08
2023-02-18T08:43:04.908Z,3.25
2023-02-18T08:46:07.163Z,5.47
2023-02-18T08:49:09.806Z,3.90
2023-02-18T08:52:11.962Z,3.70
2023-02-18T08:55:14.498Z,2.87
2023-02-18T08:58:17.323Z,1.23
2023-02-18T09:01:20.876Z,3.47
2023-02-18T09:04:23.624Z,2.47
2023-02-18T09:07:26.098Z,1.20
2023-02-18T09:10:28.331Z,1.52
2023-02-18T09:13:31.759Z,2.37
2023-02-18T09:16:33.925Z,2.17
2023-02-18T09:19:36.315Z,1.75
2023-02-18T09:22:38.485Z,1.95
2023-02-18T09:25:41.120Z,1.60
2023-02-18T09:28:44.055Z,1.17
2023-02-18T09:31:46.679Z,1.30
2023-02-18T09:34:48.884Z,2.55
2023-02-18T09:37:51.311Z,1.92
2023-02-18T09:40:54.487Z,0.93
2023-02-18T09:44:06.445Z,2.70
2023-02-18T09:47:30.609Z,4.30
2023-02-18T09:50:34.149Z,1.20
2023-02-18T09:53:36.391Z,1.87
2023-02-18T09:56:40.759Z,1.40
2023-02-18T09:59:45.047Z,2.05
2023-02-18T10:03:13.742Z,0.85
2023-02-18T10:06:22.412Z,1.15
2023-02-18T10:09:33.073Z,1.33
2023-02-18T10:15:38.617Z,1.45
2023-02-18T10:18:49.837Z,1.15
2023-02-18T10:25:02.289Z,2.12
2023-02-18T10:28:04.617Z,0.82
2023-02-18T10:31:15.304Z,0.77
2023-02-18T10:34:24.134Z,1.40
2023-02-18T10:37:45.197Z,0.70
2023-02-18T10:41:00.587Z,1.90
2023-02-18T10:44:19.191Z,1.60
2023-02-18T10:47:38.306Z,2.35
2023-02-18T10:50:42.823Z,1.95
2023-02-18T10:53:46.644Z,1.95
2023-02-18T10:56:51.789Z,1.95
2023-02-18T11:00:17.475Z,1.83
2023-02-18T11:03:23.474Z,2.08
2023-02-18T11:06:42.182Z,1.23
2023-02-18T11:10:00.424Z,2.25
2023-02-18T11:13:05.903Z,1.10
2023-02-18T11:16:09.448Z,1.37
2023-02-18T11:19:35.144Z,3.20
2023-02-18T11:22:39.776Z,1.52
2023-02-18T11:25:52.269Z,1.40
2023-02-18T11:29:01.669Z,2.08
2023-02-18T11:32:04.101Z,4.62
2023-02-18T11:35:07.051Z,2.20
2023-02-18T11:38:23.245Z,4.45
2023-02-18T11:41:37.114Z,1.58
2023-02-18T11:44:50.450Z,1.50
2023-02-18T11:48:00.319Z,3.12
2023-02-18T11:51:02.711Z,3.45
2023-02-18T11:54:22.888Z,3.72
2023-02-18T11:57:27.339Z,2.15
2023-02-18T12:00:42.786Z,2.47
2023-02-18T12:03:55.064Z,2.85
2023-02-18T12:07:12.465Z,2.35
2023-02-18T12:10:33.009Z,1.73
2023-02-18T12:13:39.299Z,3.60
2023-02-18T12:17:07.306Z,1.50
2023-02-18T12:20:27.760Z,1.73
2023-02-18T12:23:42.088Z,2.58
2023-02-18T12:26:59.441Z,1.08
2023-02-18T12:30:13.856Z,2.20
2023-02-18T12:33:55.924Z,2.83
2023-02-18T12:37:04.243Z,1.98
2023-02-18T12:40:21.938Z,1.30
2023-02-18T12:43:32.926Z,0.68
2023-02-18T12:46:53.235Z,1.37
2023-02-18T12:50:23.537Z,2.40
2023-02-18T12:53:34.607Z,1.92
2023-02-18T12:56:36.953Z,1.00
2023-02-18T12:59:39.080Z,2.72
2023-02-18T13:02:59.544Z,2.47
2023-02-18T13:06:40.797Z,0.70
2023-02-18T13:09:52.032Z,0.50
2023-02-18T13:13:31.651Z,1.08
2023-02-18T13:16:35.044Z,2.33
2023-02-18T13:19:50.185Z,0.75
2023-02-18T13:22:53.402Z,0.90
2023-02-18T13:26:01.184Z,1.95
2023-02-18T13:29:18.067Z,0.60
2023-02-18T13:32:29.473Z,0.62
2023-02-18T13:35:43.939Z,1.33
2023-02-18T13:39:01.369Z,0.30
2023-02-18T13:42:24.390Z,1.48
2023-02-18T13:45:33.564Z,0.50
2023-02-18T13:48:40.357Z,0.55
2023-02-18T13:51:48.694Z,0.88
2023-02-18T13:54:52.095Z,1.05
2023-02-18T13:57:55.717Z,0.45
2023-02-18T14:01:02.586Z,0.40
2023-02-18T14:04:36.816Z,0.30
2023-02-18T14:07:49.266Z,1.15
2023-02-18T14:11:14.215Z,3.65
2023-02-18T14:14:25.280Z,1.75
2023-02-18T14:17:35.635Z,0.73
2023-02-18T14:20:40.475Z,0.60
2023-02-18T14:24:06.129Z,0.50
2023-02-18T14:27:16.064Z,1.00
2023-02-18T14:30:21.605Z,0.85
2023-02-18T14:33:25.041Z,0.37
2023-02-18T14:36:45.424Z,1.10
2023-02-18T14:40:03.103Z,0.55
2023-02-18T14:43:18.318Z,2.53
2023-02-18T14:46:51.376Z,0.75
2023-02-18T14:50:01.103Z,2.80
2023-02-18T14:53:13.295Z,8.48
2023-02-18T14:56:18.951Z,12.05
2023-02-18T14:59:23.851Z,24.70
2023-02-18T15:02:31.197Z,30.90
2023-02-18T15:05:38.051Z,34.78
2023-02-18T15:08:40.846Z,33.33
2023-02-18T15:11:47.668Z,31.73
2023-02-18T15:14:53.643Z,31.02
2023-02-18T15:17:56.342Z,31.62
2023-02-18T15:21:05.111Z,36.40
2023-02-18T15:24:17.244Z,36.83
2023-02-18T15:27:29.154Z,37.17
2023-02-18T15:30:32.126Z,41.40
2023-02-18T15:33:34.563Z,41.25
2023-02-18T15:36:36.842Z,44.75
2023-02-18T15:39:40.470Z,39.53
2023-02-18T15:42:42.934Z,43.83
2023-02-18T15:45:49.818Z,46.50
2023-02-18T15:48:54.334Z,48.22
2023-02-18T15:52:00.520Z,44.22
2023-02-18T15:55:07.821Z,43.67
2023-02-18T15:58:31.264Z,45.58
2023-02-18T16:01:33.974Z,51.20
2023-02-18T16:04:42.073Z,47.55
2023-02-18T16:07:59.591Z,50.90
2023-02-18T16:11:07.436Z,47.60
2023-02-18T16:14:34.503Z,48.97
2023-02-18T16:17:37.332Z,52.72
2023-02-18T16:20:41.908Z,51.65
2023-02-18T16:23:59.290Z,51.55
2023-02-18T16:27:03.324Z,50.00
2023-02-18T16:30:21.447Z,56.80
2023-02-18T16:33:23.821Z,52.25
2023-02-18T16:36:26.440Z,54.58
2023-02-18T16:39:32.885Z,53.50
2023-02-18T16:42:35.431Z,54.47
2023-02-18T16:45:43.256Z,53.03
2023-02-18T16:48:49.246Z,54.15
2023-02-18T16:51:51.413Z,51.20
2023-02-18T16:54:55.327Z,56.20
2023-02-18T16:57:57.608Z,54.65
2023-02-18T17:01:00.697Z,56.25
2023-02-18T17:04:05.588Z,58.53
2023-02-18T17:07:11.718Z,49.75
2023-02-18T17:10:14.561Z,55.17
2023-02-18T17:13:23.404Z,53.50
2023-02-18T17:16:27.438Z,57.90
2023-02-18T17:19:29.861Z,58.22
2023-02-18T17:22:31.996Z,55.35
2023-02-18T17:25:38.074Z,57.88
2023-02-18T17:28:40.191Z,55.92
2023-02-18T17:31:46.932Z,57.17
2023-02-18T17:34:49.337Z,59.95
2023-02-18T17:37:51.795Z,60.50
2023-02-18T17:40:53.907Z,66.47
2023-02-18T17:43:56.361Z,59.25
2023-02-18T17:46:58.572Z,57.72
2023-02-18T17:50:00.964Z,59.08
2023-02-18T17:53:03.155Z,63.42
2023-02-18T17:56:05.583Z,60.75
2023-02-18T17:59:08.182Z,62.20
2023-02-18T18:02:26.273Z,58.53
2023-02-18T18:05:32.300Z,57.78
2023-02-18T18:08:34.581Z,58.50
2023-02-18T18:11:37.370Z,60.22
2023-02-18T18:14:39.540Z,61.25
2023-02-18T18:17:42.001Z,57.42
2023-02-18T18:20:54.232Z,63.28
2023-02-18T18:23:56.792Z,59.55
2023-02-18T18:26:59.113Z,65.62
2023-02-18T18:30:01.891Z,61.45
2023-02-18T18:33:14.448Z,66.30
2023-02-18T18:36:19.541Z,63.42
2023-02-18T18:39:21.776Z,66.47
2023-02-18T18:42:24.228Z,66.72
2023-02-18T18:45:27.695Z,66.93
2023-02-18T18:48:30.139Z,65.40
2023-02-18T18:51:33.057Z,63.28
2023-02-18T18:54:35.478Z,63.70
2023-02-18T18:57:37.600Z,62.35
2023-02-18T19:00:43.470Z,55.15
2023-02-18T19:03:46.872Z,60.38
2023-02-18T19:06:49.409Z,60.40
2023-02-18T19:09:51.573Z,59.25
2023-02-18T19:12:55.982Z,63.17
2023-02-18T19:16:20.889Z,60.50
2023-02-18T19:19:24.609Z,62.55
2023-02-18T19:22:26.866Z,61.78
2023-02-18T19:25:29.532Z,58.33
2023-02-18T19:28:31.832Z,61.37
2023-02-18T19:31:34.363Z,58.63
2023-02-18T19:34:36.594Z,60.30
2023-02-18T19:37:38.977Z,59.40
2023-02-18T19:40:42.170Z,56.80
2023-02-18T19:43:46.603Z,60.30
2023-02-18T19:46:48.817Z,49.80
2023-02-18T19:49:52.242Z,46.20
2023-02-18T19:52:55.852Z,47.22
2023-02-18T19:56:02.297Z,43.70
2023-02-18T19:59:04.685Z,45.78
2023-02-18T20:02:07.894Z,40.17
2023-02-18T20:05:12.673Z,43.78
2023-02-18T20:08:14.917Z,42.00
2023-02-18T20:11:17.441Z,42.53
2023-02-18T20:14:20.267Z,48.80
2023-02-18T20:17:22.708Z,47.70
2023-02-18T20:20:26.996Z,49.83
2023-02-18T20:23:29.461Z,53.33
2023-02-18T20:26:31.688Z,52.38
2023-02-18T20:29:34.598Z,47.90
2023-02-18T20:32:37.549Z,50.22
2023-02-18T20:35:39.969Z,49.80
2023-02-18T20:38:42.426Z,46.88
2023-02-18T20:41:46.769Z,47.65
2023-02-18T20:44:49.524Z,50.95
2023-02-18T20:47:51.973Z,45.70
2023-02-18T20:50:54.124Z,46.47
2023-02-18T20:53:57.817Z,52.05
2023-02-18T20:57:00.203Z,52.55
2023-02-18T21:00:04.168Z,48.67
2023-02-18T21:03:06.360Z,49.58
2023-02-18T21:06:13.759Z,47.00
2023-02-18T21:09:17.878Z,46.03
2023-02-18T21:12:20.725Z,50.92
2023-02-18T21:15:22.908Z,45.97
2023-02-18T21:18:25.665Z,46.60
2023-02-18T21:21:27.939Z,50.35
2023-02-18T21:24:31.926Z,46.60
2023-02-18T21:27:34.691Z,44.30
2023-02-18T21:30:39.821Z,40.55
2023-02-18T21:33:42.145Z,38.85
2023-02-18T21:36:44.847Z,38.30
2023-02-18T21:39:46.954Z,37.83
2023-02-18T21:42:49.341Z,33.40
2023-02-18T21:45:51.532Z,34.67
2023-02-18T21:49:05.547Z,32.15
2023-02-18T21:52:08.699Z,28.12
2023-02-18T21:55:11.973Z,27.75
2023-02-18T21:58:14.224Z,24.83
2023-02-18T22:01:16.749Z,23.48
2023-02-18T22:04:19.859Z,23.20
2023-02-18T22:07:24.339Z,18.62
2023-02-18T22:10:26.734Z,18.92
2023-02-18T22:13:28.882Z,20.75
2023-02-18T22:16:31.369Z,17.30
2023-02-18T22:19:33.808Z,10.38
2023-02-18T22:22:36.265Z,7.35
2023-02-18T22:25:38.400Z,5.60
2023-02-18T22:28:41.286Z,7.45
2023-02-18T22:31:43.642Z,4.35
2023-02-18T22:34:46.115Z,5.55
2023-02-18T22:37:48.284Z,4.75
2023-02-18T22:40:51.856Z,4.22
2023-02-18T22:43:55.589Z,6.45
2023-02-18T22:46:58.224Z,7.20
2023-02-18T22:50:00.427Z,5.85
2023-02-18T22:53:03.350Z,6.05
2023-02-18T22:56:08.799Z,5.35
2023-02-18T22:59:15.651Z,6.28
2023-02-18T23:02:17.816Z,6.70
2023-02-18T23:05:20.300Z,4.93
2023-02-18T23:08:22.610Z,4.65
2023-02-18T23:11:25.502Z,5.30
2023-02-18T23:14:29.673Z,8.25
2023-02-18T23:17:32.071Z,6.10
2023-02-18T23:20:53.919Z,4.00
2023-02-18T23:23:56.396Z,3.50
2023-02-18T23:26:58.618Z,3.58
2023-02-18T23:30:01.124Z,3.78
2023-02-18T23:33:03.357Z,4.65
2023-02-18T23:36:13.878Z,4.97
2023-02-18T23:39:18.972Z,2.53
2023-02-18T23:42:21.424Z,3.50
2023-02-18T23:45:23.759Z,4.37
2023-02-18T23:48:26.167Z,3.08
2023-02-18T23:51:29.726Z,1.80
2023-02-18T23:54:32.218Z,1.62
2023-02-18T23:57:34.553Z,2.20
